Time;durP1;ratioP1;P1;durP2;ratioP2;P2;SDS_P1;SDS_P2;PMS_P1;PMS_P2;Temp;Humidity;BMP_temperature;BMP_pressure;BME280_temperature;BME280_humidity;BME280_pressure;Samples;Min_cycle;Max_cycle;Signal;HPM_P1;HPM_P2
2022/06/14 00:01:42;;;;;;;4.80;2.97;;;10.10;99.90;;;;;;5044923;28;20504;-28
2022/06/14 00:04:07;;;;;;;5.82;3.20;;;10.00;99.90;;;;;;5041692;28;20041;-28
2022/06/14 00:06:34;;;;;;;10.95;3.50;;;10.00;99.90;;;;;;5045154;28;20037;-28
2022/06/14 00:09:00;;;;;;;8.15;3.22;;;10.00;99.90;;;;;;5043359;28;20048;-28
2022/06/14 00:11:32;;;;;;;6.55;2.58;;;10.00;99.90;;;;;;5047564;28;20104;-28
2022/06/14 00:14:00;;;;;;;6.47;3.70;;;9.90;99.90;;;;;;5044248;28;20455;-28
2022/06/14 00:16:28;;;;;;;7.43;3.38;;;9.90;99.90;;;;;;5045030;28;20033;-28
2022/06/14 00:18:54;;;;;;;9.82;3.42;;;9.90;99.90;;;;;;5043672;28;20034;-28
2022/06/14 00:21:21;;;;;;;8.43;3.92;;;9.80;99.90;;;;;;5028570;28;20037;-28
2022/06/14 00:23:47;;;;;;;7.40;3.45;;;9.80;99.90;;;;;;5042817;28;20117;-28
2022/06/14 00:26:13;;;;;;;6.18;4.10;;;9.80;99.90;;;;;;5047044;28;20073;-25
2022/06/14 00:28:42;;;;;;;8.35;3.58;;;9.80;99.90;;;;;;5049733;28;20084;-25
2022/06/14 00:31:27;;;;;;;7.97;3.58;;;9.70;99.90;;;;;;5051134;28;20488;-27
2022/06/14 00:33:53;;;;;;;7.78;3.45;;;9.70;99.90;;;;;;5044429;28;20432;-27
2022/06/14 00:36:19;;;;;;;8.82;3.97;;;9.70;99.90;;;;;;5045295;28;20037;-27
2022/06/14 00:38:45;;;;;;;9.93;5.20;;;9.70;99.90;;;;;;5040847;28;20041;-27
2022/06/14 00:41:34;;;;;;;9.98;3.75;;;9.70;99.90;;;;;;5040359;28;20041;-27
2022/06/14 00:44:00;;;;;;;8.43;3.90;;;9.70;99.90;;;;;;5040078;28;20038;-28
2022/06/14 00:46:55;;;;;;;5.22;3.83;;;9.70;99.90;;;;;;5050446;28;20496;-27
2022/06/14 00:49:29;;;;;;;10.23;4.18;;;9.70;99.90;;;;;;5040483;28;20049;-27
2022/06/14 00:52:15;;;;;;;7.30;3.47;;;9.70;99.90;;;;;;5046005;28;20500;-27
2022/06/14 00:54:44;;;;;;;6.97;3.85;;;9.60;99.90;;;;;;5046394;28;20040;-27
2022/06/14 00:57:13;;;;;;;8.30;3.60;;;9.60;99.90;;;;;;5040497;28;20039;-28
2022/06/14 00:59:45;;;;;;;6.85;4.05;;;9.50;99.90;;;;;;5044204;28;20045;-27
2022/06/14 01:02:17;;;;;;;6.20;3.60;;;9.40;99.90;;;;;;5044772;28;20041;-27
2022/06/14 01:04:43;;;;;;;5.68;3.78;;;9.40;99.90;;;;;;5045728;28;20102;-27
2022/06/14 01:07:12;;;;;;;6.57;3.85;;;9.40;99.90;;;;;;5041383;28;20056;-27
2022/06/14 01:10:01;;;;;;;9.25;4.45;;;9.40;99.90;;;;;;5036392;28;20116;-28
2022/06/14 01:12:31;;;;;;;7.78;4.10;;;9.30;99.90;;;;;;5030580;28;20547;-28
2022/06/14 01:15:03;;;;;;;10.43;4.70;;;9.30;99.90;;;;;;5039229;28;20045;-25
2022/06/14 01:17:32;;;;;;;7.25;4.68;;;9.30;99.90;;;;;;5049071;28;20044;-26
2022/06/14 01:19:58;;;;;;;11.98;5.55;;;9.30;99.90;;;;;;5053279;28;20048;-26
2022/06/14 01:22:26;;;;;;;9.68;5.55;;;9.30;99.90;;;;;;5053746;28;20043;-26
2022/06/14 01:24:52;;;;;;;11.10;5.28;;;9.40;99.90;;;;;;5052798;28;20051;-26
2022/06/14 01:27:20;;;;;;;10.57;5.00;;;9.30;99.90;;;;;;5035049;28;20080;-26
2022/06/14 01:30:02;;;;;;;10.20;5.38;;;9.30;99.90;;;;;;5053043;28;20045;-26
2022/06/14 01:32:32;;;;;;;8.57;4.75;;;9.30;99.90;;;;;;5052888;28;20116;-27
2022/06/14 01:35:02;;;;;;;7.10;5.35;;;9.30;99.90;;;;;;5035424;28;20504;-26
2022/06/14 01:37:30;;;;;;;13.93;5.70;;;9.30;99.90;;;;;;5053527;28;20107;-26
2022/06/14 01:39:56;;;;;;;8.30;5.35;;;9.30;99.90;;;;;;5052821;28;20041;-26
2022/06/14 01:42:43;;;;;;;8.82;5.22;;;9.30;99.90;;;;;;5052975;28;20079;-26
2022/06/14 01:45:26;;;;;;;9.75;5.68;;;9.30;99.90;;;;;;5052889;28;20120;-26
2022/06/14 01:48:39;;;;;;;7.93;5.65;;;9.30;99.90;;;;;;5053297;28;20460;-26
2022/06/14 01:52:11;;;;;;;6.72;5.50;;;9.30;99.90;;;;;;4981780;28;20089;-26
2022/06/14 01:54:55;;;;;;;12.35;5.55;;;9.20;99.90;;;;;;5048401;28;20107;-26
2022/06/14 01:57:26;;;;;;;8.30;5.00;;;9.20;99.90;;;;;;5052459;28;20033;-26
2022/06/14 02:06:38;;;;;;;8.50;5.55;;;9.20;99.90;;;;;;5052686;28;20049;-26
2022/06/14 02:09:15;;;;;;;11.93;5.90;;;9.20;99.90;;;;;;5034878;28;20178;-27
2022/06/14 02:11:41;;;;;;;9.35;5.38;;;9.20;99.90;;;;;;5052141;28;20087;-26
2022/06/14 02:14:33;;;;;;;8.75;5.22;;;9.20;99.90;;;;;;5052176;28;20041;-26
2022/06/14 02:17:06;;;;;;;10.00;5.70;;;9.20;99.90;;;;;;5052107;28;20447;-26
2022/06/14 02:19:41;;;;;;;9.43;5.60;;;9.10;99.90;;;;;;5034299;28;20049;-26
2022/06/14 02:22:23;;;;;;;9.35;5.53;;;9.10;99.90;;;;;;5034046;28;20045;-26
2022/06/14 02:24:56;;;;;;;6.65;5.35;;;9.00;99.90;;;;;;5051573;28;20140;-26
2022/06/14 02:27:31;;;;;;;10.23;5.17;;;9.00;99.90;;;;;;5051996;28;20395;-26
2022/06/14 02:30:07;;;;;;;9.90;5.80;;;9.00;99.90;;;;;;5051830;28;20291;-27
2022/06/14 02:32:55;;;;;;;10.40;5.18;;;9.00;99.90;;;;;;5051337;28;20033;-26
2022/06/14 02:35:24;;;;;;;6.55;4.95;;;9.00;99.90;;;;;;5033255;28;20048;-26
2022/06/14 02:38:03;;;;;;;7.03;4.93;;;9.00;99.90;;;;;;5051494;28;20036;-26
2022/06/14 02:41:07;;;;;;;7.32;5.30;;;9.00;99.90;;;;;;5051675;28;20392;-26
2022/06/14 02:43:48;;;;;;;6.22;4.95;;;9.00;99.90;;;;;;5051749;28;20045;-26
2022/06/14 02:46:54;;;;;;;8.38;5.40;;;8.90;99.90;;;;;;5051395;28;20139;-27
2022/06/14 02:49:22;;;;;;;6.43;5.53;;;9.00;99.90;;;;;;4989379;28;20038;-26
2022/06/14 02:51:59;;;;;;;9.30;5.28;;;9.00;99.90;;;;;;4989461;28;20072;-26
2022/06/14 02:54:32;;;;;;;9.45;6.05;;;9.00;99.90;;;;;;5024844;28;20091;-26
2022/06/14 02:57:13;;;;;;;9.48;6.05;;;9.00;99.90;;;;;;5051056;28;20048;-26
2022/06/14 03:00:08;;;;;;;8.70;5.32;;;9.00;99.90;;;;;;5051105;28;20044;-26
2022/06/14 03:02:38;;;;;;;10.25;5.88;;;9.00;99.90;;;;;;5050813;28;20128;-26
2022/06/14 03:05:19;;;;;;;9.25;5.90;;;9.00;99.90;;;;;;5051337;28;20128;-26
2022/06/14 03:07:54;;;;;;;8.05;5.43;;;9.10;99.90;;;;;;5050830;28;20123;-26
2022/06/14 03:10:20;;;;;;;9.30;5.95;;;9.10;99.90;;;;;;5033113;28;20570;-26
2022/06/14 03:13:26;;;;;;;11.35;6.40;;;9.00;99.90;;;;;;5051140;28;20060;-27
2022/06/14 03:16:19;;;;;;;9.68;5.85;;;9.00;99.90;;;;;;5051364;28;20037;-26
2022/06/14 03:18:49;;;;;;;13.40;6.43;;;9.10;99.90;;;;;;5050646;28;20041;-26
2022/06/14 03:21:18;;;;;;;10.05;6.32;;;9.10;99.90;;;;;;5032955;28;20076;-26
2022/06/14 03:23:50;;;;;;;9.88;6.40;;;9.10;99.90;;;;;;5050915;28;20057;-26
2022/06/14 03:26:58;;;;;;;12.65;6.30;;;9.10;99.90;;;;;;5050937;28;20051;-26
2022/06/14 03:29:59;;;;;;;9.90;7.15;;;9.20;99.90;;;;;;5050552;28;20037;-26
2022/06/14 03:32:34;;;;;;;11.43;6.18;;;9.20;99.90;;;;;;5032910;28;20041;-26
2022/06/14 03:35:13;;;;;;;11.65;6.90;;;9.20;99.90;;;;;;5051116;28;20427;-26
2022/06/14 03:37:39;;;;;;;12.90;6.72;;;9.30;99.90;;;;;;5036317;28;20103;-26
2022/06/14 03:40:12;;;;;;;8.73;6.10;;;9.20;99.90;;;;;;5054916;28;20493;-26
2022/06/14 03:42:38;;;;;;;12.43;6.72;;;9.30;99.90;;;;;;5055164;28;20041;-26
2022/06/14 03:45:07;;;;;;;10.60;6.88;;;9.20;99.90;;;;;;5054981;28;20119;-26
2022/06/14 03:47:33;;;;;;;11.80;7.20;;;9.20;99.90;;;;;;5054913;28;20041;-26
2022/06/14 03:50:08;;;;;;;9.50;6.05;;;9.20;99.90;;;;;;5054854;28;20037;-26
2022/06/14 03:53:00;;;;;;;10.32;7.00;;;9.30;99.90;;;;;;5054534;28;20039;-26
2022/06/14 03:55:51;;;;;;;11.77;6.30;;;9.30;99.90;;;;;;5054719;28;20475;-26
2022/06/14 03:58:42;;;;;;;14.93;7.32;;;9.30;99.90;;;;;;5036824;28;20399;-26
2022/06/14 04:01:11;;;;;;;13.80;6.57;;;9.40;99.90;;;;;;5054746;28;20047;-26
2022/06/14 04:04:18;;;;;;;12.45;6.75;;;9.40;99.90;;;;;;5055314;28;20480;-26
2022/06/14 04:07:14;;;;;;;14.38;6.70;;;9.50;99.90;;;;;;5036377;28;20053;-26
2022/06/14 04:09:48;;;;;;;11.93;6.38;;;9.50;99.90;;;;;;5054279;28;20491;-26
2022/06/14 04:12:26;;;;;;;9.95;7.07;;;9.50;99.90;;;;;;5054374;28;20045;-26
2022/06/14 04:15:20;;;;;;;10.75;6.47;;;9.60;99.90;;;;;;5036721;28;20049;-26
2022/06/14 04:17:55;;;;;;;;;;;9.60;99.90;;;;;;5054769;28;20090;-26
2022/06/14 04:20:41;;;;;;;10.73;6.65;;;9.70;99.90;;;;;;5055261;28;19960;-26
2022/06/14 04:23:22;;;;;;;13.18;6.88;;;9.70;99.90;;;;;;5054966;28;20140;-26
2022/06/14 04:25:56;;;;;;;11.55;6.80;;;9.70;99.90;;;;;;5054547;28;20051;-26
2022/06/14 04:28:56;;;;;;;10.50;6.72;;;9.70;99.90;;;;;;5052741;28;20531;-26
2022/06/14 04:31:31;;;;;;;9.90;6.93;;;9.70;99.90;;;;;;5053353;28;20093;-26
2022/06/14 04:34:12;;;;;;;10.77;7.20;;;9.70;99.90;;;;;;5052902;28;20044;-26
2022/06/14 04:36:48;;;;;;;9.13;6.28;;;9.80;99.90;;;;;;5052943;28;20485;-26
2022/06/14 04:39:22;;;;;;;9.88;6.78;;;9.80;99.90;;;;;;5034734;28;20496;-26
2022/06/14 04:42:11;;;;;;;9.48;6.35;;;9.80;99.90;;;;;;5051726;28;20040;-26
2022/06/14 04:45:04;;;;;;;7.05;6.22;;;9.90;99.90;;;;;;5035061;28;20055;-26
2022/06/14 04:47:56;;;;;;;11.70;7.18;;;9.90;99.90;;;;;;5052294;28;20127;-26
2022/06/14 04:50:31;;;;;;;12.95;6.90;;;9.90;99.90;;;;;;5052815;28;20043;-27
2022/06/14 04:53:24;;;;;;;9.75;6.20;;;10.00;99.90;;;;;;5052617;28;20036;-26
2022/06/14 04:55:59;;;;;;;11.48;6.30;;;10.00;99.90;;;;;;5003848;28;20064;-27
2022/06/14 04:58:43;;;;;;;11.82;6.57;;;10.10;99.90;;;;;;5034560;28;20055;-26
2022/06/14 05:01:18;;;;;;;11.20;6.35;;;10.10;99.90;;;;;;5052635;28;20087;-26
2022/06/14 05:04:00;;;;;;;11.45;6.53;;;10.20;99.90;;;;;;5052700;28;20045;-26
2022/06/14 05:06:31;;;;;;;11.25;6.60;;;10.20;99.90;;;;;;5052756;28;20079;-26
2022/06/14 05:09:11;;;;;;;10.93;6.47;;;10.30;99.90;;;;;;5052733;28;20048;-27
2022/06/14 05:11:49;;;;;;;13.77;7.30;;;10.40;99.90;;;;;;5052714;28;20041;-26
2022/06/14 05:14:35;;;;;;;10.43;6.90;;;10.40;99.90;;;;;;5052847;28;20439;-26
2022/06/14 05:17:15;;;;;;;12.95;6.97;;;10.50;99.90;;;;;;5052424;28;20041;-27
2022/06/14 05:19:58;;;;;;;12.48;7.30;;;10.60;99.90;;;;;;5052614;28;20041;-26
2022/06/14 05:22:36;;;;;;;12.48;7.20;;;10.70;99.90;;;;;;5052765;28;20402;-27
2022/06/14 05:25:04;;;;;;;11.63;6.68;;;10.80;99.90;;;;;;5052813;28;20045;-26
2022/06/14 05:27:41;;;;;;;11.40;7.10;;;10.90;99.90;;;;;;5011581;28;1182800;-26
2022/06/14 05:30:10;;;;;;;12.85;7.60;;;11.00;99.90;;;;;;5053531;28;20037;-26
2022/06/14 05:33:15;;;;;;;12.10;7.65;;;11.10;99.90;;;;;;5053352;28;20073;-27
2022/06/14 05:35:46;;;;;;;;;;;11.20;99.90;;;;;;5022491;28;20128;-27
2022/06/14 05:38:17;;;;;;;9.35;6.72;;;11.30;99.90;;;;;;5053625;28;19967;-27
2022/06/14 05:41:05;;;;;;;15.77;7.05;;;11.40;99.90;;;;;;5053246;28;20098;-27
2022/06/14 05:43:33;;;;;;;11.15;6.32;;;11.60;99.90;;;;;;5053486;28;20530;-26
2022/06/14 05:46:31;;;;;;;10.05;6.65;;;11.70;99.90;;;;;;5035733;28;20244;-26
2022/06/14 05:49:20;;;;;;;9.65;6.95;;;11.80;99.90;;;;;;5039741;28;20539;-26
2022/06/14 05:51:52;;;;;;;11.20;6.30;;;12.00;99.90;;;;;;5053466;28;20521;-26
2022/06/14 05:54:41;;;;;;;9.65;6.13;;;12.10;99.90;;;;;;5053247;28;20052;-26
2022/06/14 05:57:38;;;;;;;15.02;6.75;;;12.20;99.90;;;;;;5041804;28;20132;-26
2022/06/14 06:00:06;;;;;;;11.65;6.85;;;12.30;99.90;;;;;;5052205;28;20041;-26
2022/06/14 06:02:52;;;;;;;12.13;6.63;;;12.40;99.90;;;;;;5052880;28;20170;-26
2022/06/14 06:05:30;;;;;;;12.00;6.40;;;12.50;99.90;;;;;;5052457;28;20033;-28
2022/06/14 06:08:06;;;;;;;11.80;6.40;;;12.60;99.90;;;;;;5042717;28;20048;-28
2022/06/14 06:10:36;;;;;;;12.63;6.10;;;12.70;99.90;;;;;;5041042;28;20404;-28
2022/06/14 06:13:15;;;;;;;13.43;6.90;;;12.90;99.90;;;;;;5040963;28;20048;-26
2022/06/14 06:15:50;;;;;;;11.13;6.63;;;13.00;99.90;;;;;;5047963;28;20040;-27
2022/06/14 06:18:36;;;;;;;10.63;5.85;;;13.10;99.90;;;;;;5047318;28;20044;-27
2022/06/14 06:21:19;;;;;;;8.55;6.03;;;13.20;99.90;;;;;;5049307;28;20041;-27
2022/06/14 06:23:57;;;;;;;12.98;6.15;;;13.40;99.90;;;;;;5033530;28;20049;-27
2022/06/14 06:26:27;;;;;;;8.25;5.43;;;13.50;99.90;;;;;;5043647;28;20033;-27
2022/06/14 06:29:01;;;;;;;8.15;5.45;;;13.60;99.90;;;;;;5033836;28;20408;-27
2022/06/14 06:31:31;;;;;;;10.70;4.70;;;13.70;99.90;;;;;;5049033;28;20098;-28
2022/06/14 06:34:00;;;;;;;9.95;4.93;;;13.80;99.90;;;;;;5047068;28;20041;-28
2022/06/14 06:36:41;;;;;;;10.25;4.85;;;13.90;99.90;;;;;;5041808;28;20048;-28
2022/06/14 06:39:16;;;;;;;11.40;5.50;;;14.00;99.90;;;;;;5048841;28;20106;-29
2022/06/14 06:41:50;;;;;;;8.90;5.22;;;14.10;99.90;;;;;;5045197;28;20121;-29
2022/06/14 06:44:23;;;;;;;10.32;5.55;;;14.20;99.90;;;;;;5041947;28;20037;-29
2022/06/14 06:46:57;;;;;;;9.75;5.55;;;14.40;99.90;;;;;;5045069;28;20041;-28
2022/06/14 06:49:31;;;;;;;9.27;5.07;;;14.50;99.90;;;;;;5050921;28;20075;-26
2022/06/14 06:52:00;;;;;;;;;;;14.60;99.90;;;;;;5046927;28;20049;-28
2022/06/14 06:54:34;;;;;;;11.35;4.95;;;14.70;99.90;;;;;;5049446;28;19970;-28
2022/06/14 06:57:01;;;;;;;6.45;4.10;;;14.70;99.90;;;;;;5050668;28;20037;-29
2022/06/14 06:59:37;;;;;;;10.48;4.60;;;14.80;99.90;;;;;;5031190;28;20084;-28
2022/06/14 07:02:20;;;;;;;6.72;3.80;;;14.90;99.90;;;;;;5042821;28;20044;-28
2022/06/14 07:05:03;;;;;;;7.22;4.28;;;15.10;99.90;;;;;;5043789;28;20503;-29
2022/06/14 07:07:37;;;;;;;13.45;4.63;;;15.20;99.90;;;;;;5039185;28;20045;-29
2022/06/14 07:10:18;;;;;;;7.70;3.50;;;15.30;99.90;;;;;;5019073;28;20046;-29
2022/06/14 07:12:50;;;;;;;12.27;4.00;;;15.50;99.90;;;;;;5040942;28;20060;-29
2022/06/14 07:15:24;;;;;;;9.32;4.03;;;15.40;99.90;;;;;;5037411;28;20076;-28
2022/06/14 07:18:11;;;;;;;8.75;3.95;;;15.60;99.90;;;;;;5032167;28;20040;-28
2022/06/14 07:20:49;;;;;;;6.32;3.67;;;15.70;99.90;;;;;;5034899;28;20044;-28
2022/06/14 07:23:21;;;;;;;6.05;3.50;;;15.90;99.90;;;;;;5042849;28;20129;-28
2022/06/14 07:25:53;;;;;;;9.88;3.85;;;16.10;99.90;;;;;;5037792;28;20043;-28
2022/06/14 07:28:37;;;;;;;7.72;3.88;;;16.40;99.90;;;;;;5047468;28;20526;-29
2022/06/14 07:31:08;;;;;;;8.07;3.67;;;16.60;99.90;;;;;;5042006;28;20053;-28
2022/06/14 07:33:36;;;;;;;7.70;3.15;;;16.80;99.90;;;;;;5038237;28;20179;-28
2022/06/14 07:36:15;;;;;;;8.45;3.60;;;16.80;99.90;;;;;;5019091;28;20041;-30
2022/06/14 07:39:01;;;;;;;6.15;2.90;;;16.50;99.90;;;;;;5041976;28;20508;-28
2022/06/14 07:41:49;;;;;;;6.82;3.08;;;16.30;99.90;;;;;;5037682;28;20656;-28
2022/06/14 07:44:31;;;;;;;6.78;2.90;;;16.20;99.90;;;;;;5033725;28;20140;-29
2022/06/14 07:46:56;;;;;;;6.43;2.60;;;16.10;99.90;;;;;;5038631;28;20037;-29
2022/06/14 07:49:52;;;;;;;4.35;2.65;;;16.30;99.90;;;;;;5043890;28;20059;-29
2022/06/14 07:52:24;;;;;;;6.50;3.20;;;16.60;99.90;;;;;;5023375;28;20461;-29
2022/06/14 07:54:57;;;;;;;6.47;3.10;;;16.60;99.90;;;;;;5040380;28;20401;-29
2022/06/14 07:57:28;;;;;;;6.55;2.75;;;16.50;99.90;;;;;;5040825;28;20084;-29
2022/06/14 08:02:53;;;;;;;7.93;2.50;;;16.40;99.90;;;;;;5038773;28;20049;-28
2022/06/14 08:05:29;;;;;;;6.18;2.67;;;16.60;99.90;;;;;;5028278;28;20037;-29
2022/06/14 08:07:57;;;;;;;7.68;2.80;;;17.00;99.90;;;;;;5039318;28;20045;-28
2022/06/14 08:10:35;;;;;;;7.57;2.95;;;17.50;99.90;;;;;;5042554;28;20091;-30
2022/06/14 08:13:07;;;;;;;6.32;2.63;;;17.80;99.90;;;;;;5044573;28;20030;-30
2022/06/14 08:15:46;;;;;;;5.38;2.72;;;17.90;99.90;;;;;;5033375;28;20088;-29
2022/06/14 08:18:12;;;;;;;3.75;2.60;;;18.20;99.90;;;;;;5037425;28;20034;-29
2022/06/14 08:20:47;;;;;;;4.38;2.20;;;18.50;99.90;;;;;;5037114;28;20136;-30
2022/06/14 08:23:25;;;;;;;6.75;2.20;;;18.80;99.90;;;;;;5039719;28;20095;-30
2022/06/14 08:25:57;;;;;;;2.85;2.20;;;18.90;99.90;;;;;;5032420;28;20037;-29
2022/06/14 08:28:51;;;;;;;5.65;2.10;;;19.10;99.90;;;;;;5044241;28;20543;-29
2022/06/14 08:31:35;;;;;;;3.63;1.75;;;19.30;99.90;;;;;;5050946;28;20499;-29
2022/06/14 08:34:22;;;;;;;4.40;1.58;;;18.80;96.50;;;;;;5042830;28;20527;-29
2022/06/14 08:37:19;;;;;;;3.90;1.70;;;18.30;99.90;;;;;;5026282;28;20033;-29
2022/06/14 08:40:07;;;;;;;3.97;1.92;;;18.30;99.90;;;;;;5023888;28;20040;-30
2022/06/14 08:42:57;;;;;;;6.32;1.88;;;18.70;97.00;;;;;;5043846;28;20045;-29
2022/06/14 08:45:50;;;;;;;7.65;2.13;;;18.80;99.90;;;;;;5045715;28;20049;-29
2022/06/14 08:48:30;;;;;;;3.70;1.77;;;18.60;94.00;;;;;;5048784;28;20389;-29
2022/06/14 08:51:09;;;;;;;3.60;1.77;;;18.40;99.70;;;;;;5050982;28;20044;-29
2022/06/14 08:53:46;;;;;;;4.20;1.88;;;18.40;99.90;;;;;;5045848;28;20033;-28
2022/06/14 08:56:34;;;;;;;5.13;1.80;;;18.30;99.90;;;;;;5052754;28;20037;-28
2022/06/14 08:59:03;;;;;;;5.45;2.05;;;18.50;99.90;;;;;;5041686;28;20524;-29
2022/06/14 09:01:35;;;;;;;4.63;1.92;;;19.10;99.00;;;;;;5046459;28;20041;-28
2022/06/14 09:04:46;;;;;;;2.42;1.67;;;19.40;98.30;;;;;;5044117;28;20048;-29
2022/06/14 09:07:28;;;;;;;4.07;2.13;;;19.50;93.10;;;;;;5030802;28;20107;-30
2022/06/14 09:10:19;;;;;;;6.15;2.00;;;19.40;90.40;;;;;;5046437;28;20045;-30
2022/06/14 09:12:51;;;;;;;5.80;1.70;;;19.10;94.20;;;;;;5042040;28;20033;-26
2022/06/14 09:15:51;;;;;;;5.05;2.10;;;19.00;96.80;;;;;;5043155;28;20771;-29
2022/06/14 09:18:36;;;;;;;6.40;2.00;;;18.90;98.60;;;;;;5042496;28;20049;-29
2022/06/14 09:21:30;;;;;;;4.65;1.77;;;18.80;99.00;;;;;;5040658;28;20037;-29
2022/06/14 09:24:25;;;;;;;2.67;2.00;;;18.90;93.00;;;;;;5042545;28;20041;-29
2022/06/14 09:27:29;;;;;;;3.25;1.67;;;19.10;98.00;;;;;;5039592;28;20045;-29
2022/06/14 09:30:10;;;;;;;2.88;1.42;;;19.70;95.70;;;;;;5015660;28;20436;-29
2022/06/14 09:33:10;;;;;;;2.95;1.75;;;19.90;91.10;;;;;;5034984;28;20037;-29
2022/06/14 09:35:57;;;;;;;4.32;1.83;;;20.60;96.80;;;;;;5042016;28;20060;-29
2022/06/14 09:38:41;;;;;;;3.40;1.80;;;21.50;95.60;;;;;;5037034;28;20521;-29
2022/06/14 09:41:18;;;;;;;3.65;1.67;;;21.90;92.40;;;;;;5041096;28;20037;-29
2022/06/14 09:44:17;;;;;;;2.72;1.70;;;22.00;87.80;;;;;;5041365;28;20037;-30
2022/06/14 09:46:52;;;;;;;4.43;1.63;;;21.90;80.60;;;;;;5039950;28;20087;-30
2022/06/14 09:49:38;;;;;;;2.78;1.58;;;21.50;91.60;;;;;;5038042;28;20231;-29
2022/06/14 09:52:13;;;;;;;5.07;1.98;;;21.30;84.90;;;;;;5050899;28;20068;-29
2022/06/14 09:55:07;;;;;;;4.72;1.60;;;21.20;88.30;;;;;;5030926;28;20049;-29
2022/06/14 09:57:47;;;;;;;;;;;21.00;91.30;;;;;;5042648;28;20120;-29
2022/06/14 10:00:27;;;;;;;4.70;1.80;;;20.80;81.80;;;;;;5045677;28;19979;-29
2022/06/14 10:02:53;;;;;;;3.97;1.60;;;20.80;82.10;;;;;;5044349;28;20047;-29
2022/06/14 10:05:37;;;;;;;5.15;1.63;;;21.10;86.60;;;;;;5039747;28;20033;-29
2022/06/14 10:08:28;;;;;;;1.90;1.40;;;21.50;76.30;;;;;;5047473;28;20535;-29
2022/06/14 10:11:06;;;;;;;4.20;1.52;;;21.50;66.70;;;;;;5045780;28;20091;-29
2022/06/14 10:13:47;;;;;;;3.95;1.33;;;21.20;65.00;;;;;;5043982;28;20123;-28
2022/06/14 10:16:38;;;;;;;4.47;1.77;;;21.10;78.70;;;;;;5035110;28;20124;-29
2022/06/14 10:19:44;;;;;;;5.28;1.70;;;21.10;80.20;;;;;;5038480;28;20044;-29
2022/06/14 10:22:15;;;;;;;3.17;1.38;;;21.20;82.50;;;;;;4941705;28;20054;-29
2022/06/14 10:24:59;;;;;;;4.32;2.13;;;21.00;84.00;;;;;;4946826;29;20043;-29
2022/06/14 10:28:13;;;;;;;3.22;1.60;;;21.00;86.50;;;;;;5005727;28;20049;-29
2022/06/14 10:30:39;;;;;;;5.22;1.65;;;21.00;87.90;;;;;;5024917;28;20072;-29
2022/06/14 10:33:35;;;;;;;3.08;1.55;;;21.00;86.10;;;;;;5038360;28;20389;-29
2022/06/14 10:36:16;;;;;;;2.78;1.27;;;21.00;66.50;;;;;;5043774;28;20047;-29
2022/06/14 10:38:57;;;;;;;5.03;1.73;;;20.90;72.50;;;;;;5040581;28;20115;-29
2022/06/14 10:41:47;;;;;;;3.50;1.38;;;20.90;73.80;;;;;;5047124;28;20033;-29
2022/06/14 10:44:42;;;;;;;3.40;1.20;;;21.30;71.60;;;;;;5040335;28;20033;-29
2022/06/14 10:47:45;;;;;;;3.63;1.40;;;21.70;71.70;;;;;;5035632;28;20117;-29
2022/06/14 10:50:50;;;;;;;4.63;2.50;;;22.20;71.40;;;;;;5040479;28;20044;-29
2022/06/14 10:53:28;;;;;;;2.88;1.73;;;22.40;70.30;;;;;;5041785;28;20075;-29
2022/06/14 10:56:18;;;;;;;3.75;1.30;;;22.50;72.20;;;;;;5039718;28;20076;-30
2022/06/14 10:59:06;;;;;;;4.38;1.70;;;22.50;75.30;;;;;;4993489;28;20048;-30
2022/06/14 11:01:50;;;;;;;3.30;1.60;;;22.40;71.00;;;;;;5045944;28;20504;-30
2022/06/14 11:04:24;;;;;;;;;;;22.30;63.50;;;;;;5043043;28;20476;-30
2022/06/14 11:07:25;;;;;;;3.97;1.70;;;22.00;66.10;;;;;;5044919;28;19916;-29
2022/06/14 11:10:09;;;;;;;4.00;1.48;;;21.80;62.50;;;;;;5043948;28;20037;-30
2022/06/14 11:13:11;;;;;;;4.97;1.55;;;21.70;67.50;;;;;;5027476;28;20029;-30
2022/06/14 11:15:49;;;;;;;3.58;1.70;;;21.90;59.30;;;;;;5044230;28;20033;-30
2022/06/14 11:18:48;;;;;;;4.18;1.70;;;21.60;64.60;;;;;;5043519;28;20037;-30
2022/06/14 11:21:41;;;;;;;2.92;1.85;;;21.80;63.90;;;;;;5045284;28;20496;-30
2022/06/14 11:24:19;;;;;;;2.75;1.45;;;21.80;58.00;;;;;;5043260;28;20037;-30
2022/06/14 11:27:05;;;;;;;4.43;1.75;;;21.80;61.50;;;;;;5045983;28;20069;-30
2022/06/14 11:29:42;;;;;;;3.35;1.77;;;22.20;64.00;;;;;;5044397;28;20037;-30
2022/06/14 11:32:27;;;;;;;4.40;1.48;;;23.00;62.40;;;;;;5031527;28;20056;-30
2022/06/14 11:35:11;;;;;;;2.63;1.65;;;23.80;64.70;;;;;;5020207;28;20128;-30
2022/06/14 11:37:52;;;;;;;2.15;1.40;;;24.60;63.80;;;;;;5009563;28;20033;-31
2022/06/14 11:40:25;;;;;;;3.15;1.42;;;25.50;56.70;;;;;;5045272;28;20392;-31
2022/06/14 11:43:32;;;;;;;3.05;1.35;;;25.50;54.20;;;;;;5028123;28;20261;-31
2022/06/14 11:46:20;;;;;;;3.08;1.58;;;25.00;53.80;;;;;;5041496;28;20119;-31
2022/06/14 11:49:19;;;;;;;4.32;1.70;;;24.60;54.10;;;;;;5038954;28;20038;-31
2022/06/14 11:52:18;;;;;;;2.58;1.30;;;24.00;54.50;;;;;;4992424;28;20048;-31
2022/06/14 11:55:08;;;;;;;4.28;1.40;;;23.60;55.00;;;;;;5024517;28;20041;-29
2022/06/14 11:57:55;;;;;;;3.58;1.40;;;23.40;56.80;;;;;;5035544;28;20392;-30
2022/06/14 12:00:35;;;;;;;3.05;1.70;;;23.20;58.30;;;;;;5018734;28;20087;-30
2022/06/14 12:03:25;;;;;;;5.05;1.77;;;23.40;58.70;;;;;;5039357;28;20052;-31
2022/06/14 12:06:17;;;;;;;9.52;1.77;;;24.30;61.60;;;;;;5045771;28;20116;-30
2022/06/14 12:09:15;;;;;;;1.73;1.17;;;24.80;56.20;;;;;;5044658;28;20048;-30
2022/06/14 12:11:43;;;;;;;3.58;1.45;;;24.60;52.50;;;;;;5021811;28;20037;-30
2022/06/14 12:14:12;;;;;;;4.47;1.50;;;24.20;53.10;;;;;;5028873;28;20068;-30
2022/06/14 12:16:54;;;;;;;2.40;1.00;;;23.90;51.50;;;;;;5028169;28;20073;-30
2022/06/14 12:19:30;;;;;;;3.22;1.20;;;23.80;50.30;;;;;;5044878;28;20381;-27
2022/06/14 12:27:39;;;;;;;3.85;1.27;;;23.30;53.20;;;;;;5034097;28;20050;-27
2022/06/14 12:30:06;;;;;;;2.38;1.38;;;23.20;52.40;;;;;;5042372;28;20037;-28
2022/06/14 12:32:59;;;;;;;3.50;1.60;;;23.00;51.70;;;;;;5053552;28;20033;-28
2022/06/14 12:35:33;;;;;;;2.58;1.35;;;22.70;50.00;;;;;;5032758;28;20496;-28
2022/06/14 12:38:13;;;;;;;3.95;1.77;;;22.60;50.80;;;;;;5050304;28;20405;-28
2022/06/14 12:40:39;;;;;;;3.47;1.38;;;22.90;51.50;;;;;;5048664;28;20518;-28
2022/06/14 12:43:24;;;;;;;3.05;1.77;;;23.00;51.30;;;;;;5047900;28;20033;-28
2022/06/14 12:45:56;;;;;;;3.30;1.48;;;23.70;51.90;;;;;;5054128;28;20041;-28
2022/06/14 12:49:23;;;;;;;3.83;1.53;;;24.30;50.90;;;;;;5054618;28;20080;-28
2022/06/14 12:52:26;;;;;;;2.80;1.35;;;25.20;49.10;;;;;;4951029;29;20054;-28
2022/06/14 12:55:16;;;;;;;2.70;1.35;;;25.90;51.00;;;;;;4951847;29;20523;-28
2022/06/14 12:57:41;;;;;;;2.63;1.30;;;26.00;46.60;;;;;;5028796;28;20169;-28
2022/06/14 13:00:40;;;;;;;1.80;1.15;;;26.20;47.80;;;;;;5053645;28;20555;-28
2022/06/14 13:03:11;;;;;;;3.05;1.30;;;26.10;48.50;;;;;;5052794;28;20084;-28
2022/06/14 13:05:52;;;;;;;2.38;1.10;;;26.20;47.20;;;;;;5053063;28;20079;-28
2022/06/14 13:08:47;;;;;;;3.20;1.30;;;26.00;47.80;;;;;;5053161;28;20120;-30
2022/06/14 13:11:17;;;;;;;2.95;1.20;;;26.40;46.50;;;;;;5044179;28;20033;-27
2022/06/14 13:14:07;;;;;;;2.55;1.23;;;26.70;44.60;;;;;;5033854;28;20109;-29
2022/06/14 13:16:48;;;;;;;2.50;1.33;;;26.70;44.40;;;;;;5048346;28;20558;-30
2022/06/14 13:19:29;;;;;;;3.47;1.33;;;26.90;45.90;;;;;;5043350;28;20071;-30
2022/06/14 13:22:14;;;;;;;2.45;1.23;;;26.70;44.20;;;;;;5043603;28;20045;-29
2022/06/14 13:24:44;;;;;;;1.85;1.13;;;26.40;44.70;;;;;;5046229;28;20037;-30
2022/06/14 13:27:27;;;;;;;1.65;1.00;;;26.30;45.10;;;;;;5051876;28;20120;-30
2022/06/14 13:30:21;;;;;;;2.05;1.02;;;26.30;45.80;;;;;;5044199;28;20102;-31
2022/06/14 13:33:02;;;;;;;2.95;1.23;;;26.30;46.60;;;;;;5007413;28;20048;-30
2022/06/14 13:35:41;;;;;;;1.88;0.98;;;26.20;46.60;;;;;;5047626;28;20039;-30
2022/06/14 13:38:15;;;;;;;1.73;1.15;;;26.20;47.30;;;;;;5042439;28;20486;-30
2022/06/14 13:41:16;;;;;;;2.33;1.10;;;26.60;47.70;;;;;;5043988;28;20029;-30
2022/06/14 13:43:58;;;;;;;4.32;1.27;;;27.50;45.50;;;;;;5022277;28;20038;-30
2022/06/14 13:46:55;;;;;;;2.60;1.15;;;27.90;45.70;;;;;;5030351;28;20419;-30
2022/06/14 13:49:30;;;;;;;4.28;1.35;;;27.70;44.30;;;;;;4963702;28;20053;-30
2022/06/14 13:52:08;;;;;;;2.58;1.15;;;27.50;44.80;;;;;;5032148;28;20133;-29
2022/06/14 13:54:47;;;;;;;2.35;1.00;;;27.10;44.00;;;;;;5032807;28;20088;-29
2022/06/14 13:57:34;;;;;;;2.08;1.23;;;26.80;42.50;;;;;;5043009;28;20134;-29
2022/06/14 14:00:13;;;;;;;3.20;1.02;;;26.20;43.40;;;;;;5032721;28;20400;-29
2022/06/14 14:02:54;;;;;;;1.50;1.10;;;25.70;43.90;;;;;;5031751;28;20120;-30
2022/06/14 14:05:36;;;;;;;2.08;1.08;;;25.20;44.70;;;;;;5043014;28;20091;-29
2022/06/14 14:08:23;;;;;;;3.55;1.10;;;24.80;45.80;;;;;;5041917;28;20041;-29
2022/06/14 14:10:53;;;;;;;2.35;1.10;;;24.60;46.10;;;;;;5034880;28;20037;-30
2022/06/14 14:13:25;;;;;;;2.22;1.00;;;24.40;45.20;;;;;;5038816;28;20065;-30